Thomson Dream — 9HA2381 — position and weather

sailwx.info

Track history (hours):
 
Tides and Currents Weather Stations Pressure Air Temp Water Temp Dewpoint Dewpoint Depression Visibility Wind Speed Wind Dir Waves Ship Positions

Thomson Dream

Last reported at 2016-Jan-29 00:05 UTC. Time now 2016-Feb-07 17:21 UTC.
Position N 20°35' W 086°56'.
Warning: this ship's position is 9 days out of date.

Length 243 m; draft 7.6 m.

Type: Ship. MMSI: 248480975.

Date/timePositionNaut miles runAvg speedWind from/ knotsBaromVisibWave heightAir tempDewpointWater temp
2016-Jan-29 00:05N 20°35' W 086°56'5 9.2
2016-Jan-28 23:34N 20°31' W 086°57'0 0.2
2016-Jan-28 22:32N 20°31' W 086°57'0 0.0
2016-Jan-28 21:32N 20°31' W 086°57'0 0.0
2016-Jan-28 20:32N 20°31' W 086°57'0 0.0
2016-Jan-28 19:32N 20°31' W 086°57'0 0.0
2016-Jan-28 18:29N 20°31' W 086°57'0 0.0
2016-Jan-28 17:32N 20°31' W 086°57'0 0.0
2016-Jan-28 16:32N 20°31' W 086°57'0 0.0
2016-Jan-28 15:32N 20°31' W 086°57'0 0.0
2016-Jan-28 14:32N 20°31' W 086°57'0 0.0
2016-Jan-28 13:29N 20°31' W 086°57'0 0.0
2016-Jan-28 12:32N 20°31' W 086°57'0 0.0
2016-Jan-28 11:32N 20°31' W 086°57'0 0.0
2016-Jan-28 10:33N 20°31' W 086°57'5 4.6
2016-Jan-28 09:33N 20°35' W 086°56'9 9.2
2016-Jan-28 08:33N 20°41' W 086°49'  
2016-Jan-24 23:33N 20°34' W 086°57'3 3.1
2016-Jan-24 22:32N 20°31' W 086°57'0 0.0
2016-Jan-24 21:32N 20°31' W 086°57'0 0.0
2016-Jan-24 20:32N 20°31' W 086°57'0 0.0
2016-Jan-24 19:32N 20°31' W 086°57'0 0.0
2016-Jan-24 18:32N 20°31' W 086°57'0 0.0
2016-Jan-24 17:32N 20°31' W 086°57'0 0.0
2016-Jan-24 16:32N 20°31' W 086°57'0 0.0
2016-Jan-24 15:32N 20°31' W 086°57'0 0.0
2016-Jan-24 14:32N 20°31' W 086°57'0 0.0
2016-Jan-24 13:32N 20°31' W 086°57'0 0.0
2016-Jan-24 12:32N 20°31' W 086°57'0 0.0
2016-Jan-24 11:32N 20°31' W 086°57'0 0.0
2016-Jan-24 10:33N 20°31' W 086°57'4 4.3
2016-Jan-24 09:34N 20°34' W 087°00'  
Track history (hours):
 
Tides and Currents Weather Stations Pressure Air Temp Water Temp Dewpoint Dewpoint Depression Visibility Wind Speed Wind Dir Waves Ship Positions

Thomson Dream

Last reported at 2016-Jan-29 00:05 UTC. Time now 2016-Feb-07 17:21 UTC.
Position N 20°35' W 086°56'.
Warning: this ship's position is 9 days out of date.

Length 243 m; draft 7.6 m.

Type: Ship. MMSI: 248480975.

Date/timePositionNaut miles runAvg speedWind from/ knotsBaromVisibWave heightAir tempDewpointWater temp
2016-Jan-29 00:05N 20°35' W 086°56'5 9.2
2016-Jan-28 23:34N 20°31' W 086°57'0 0.2
2016-Jan-28 22:32N 20°31' W 086°57'0 0.0
2016-Jan-28 21:32N 20°31' W 086°57'0 0.0
2016-Jan-28 20:32N 20°31' W 086°57'0 0.0
2016-Jan-28 19:32N 20°31' W 086°57'0 0.0
2016-Jan-28 18:29N 20°31' W 086°57'0 0.0
2016-Jan-28 17:32N 20°31' W 086°57'0 0.0
2016-Jan-28 16:32N 20°31' W 086°57'0 0.0
2016-Jan-28 15:32N 20°31' W 086°57'0 0.0
2016-Jan-28 14:32N 20°31' W 086°57'0 0.0
2016-Jan-28 13:29N 20°31' W 086°57'0 0.0
2016-Jan-28 12:32N 20°31' W 086°57'0 0.0
2016-Jan-28 11:32N 20°31' W 086°57'0 0.0
2016-Jan-28 10:33N 20°31' W 086°57'5 4.6
2016-Jan-28 09:33N 20°35' W 086°56'9 9.2
2016-Jan-28 08:33N 20°41' W 086°49'  
2016-Jan-24 23:33N 20°34' W 086°57'3 3.1
2016-Jan-24 22:32N 20°31' W 086°57'0 0.0
2016-Jan-24 21:32N 20°31' W 086°57'0 0.0
2016-Jan-24 20:32N 20°31' W 086°57'0 0.0
2016-Jan-24 19:32N 20°31' W 086°57'0 0.0
2016-Jan-24 18:32N 20°31' W 086°57'0 0.0
2016-Jan-24 17:32N 20°31' W 086°57'0 0.0
2016-Jan-24 16:32N 20°31' W 086°57'0 0.0
2016-Jan-24 15:32N 20°31' W 086°57'0 0.0
2016-Jan-24 14:32N 20°31' W 086°57'0 0.0
2016-Jan-24 13:32N 20°31' W 086°57'0 0.0
2016-Jan-24 12:32N 20°31' W 086°57'0 0.0
2016-Jan-24 11:32N 20°31' W 086°57'0 0.0
2016-Jan-24 10:33N 20°31' W 086°57'4 4.3
2016-Jan-24 09:34N 20°34' W 087°00'  

Dump ship's entire track history